createdAt,value
2022-09-05T00:00:14.648Z,96.80
2022-09-05T00:03:04.691Z,96.90
2022-09-05T00:06:02.363Z,96.80
2022-09-05T00:08:47.088Z,97.00
2022-09-05T00:11:43.106Z,97.10
2022-09-05T00:15:14.326Z,97.10
2022-09-05T00:18:02.869Z,97.40
2022-09-05T00:24:25.996Z,97.30
2022-09-05T00:24:27.842Z,97.40
2022-09-05T00:26:43.897Z,97.50
2022-09-05T00:30:57.322Z,97.50
2022-09-05T00:32:40.056Z,97.50
2022-09-05T00:35:26.856Z,97.50
2022-09-05T00:37:57.441Z,97.60
2022-09-05T00:40:30.244Z,97.60
2022-09-05T00:43:03.406Z,97.70
2022-09-05T00:45:38.813Z,97.70
2022-09-05T00:48:21.959Z,97.60
2022-09-05T00:51:18.040Z,97.70
2022-09-05T00:53:56.963Z,97.80
2022-09-05T00:56:46.425Z,97.70
2022-09-05T00:59:58.599Z,97.70
2022-09-05T01:02:51.518Z,97.90
2022-09-05T01:05:32.996Z,97.90
2022-09-05T01:08:17.588Z,97.90
2022-09-05T01:10:54.990Z,97.90
2022-09-05T01:13:36.092Z,98.00
2022-09-05T01:16:12.295Z,98.10
2022-09-05T01:18:48.225Z,98.20
2022-09-05T01:21:40.296Z,98.10
2022-09-05T01:24:40.671Z,98.10
2022-09-05T01:28:11.299Z,98.40
2022-09-05T01:30:41.879Z,98.20
2022-09-05T01:33:21.297Z,98.20
2022-09-05T01:36:05.635Z,98.20
2022-09-05T01:38:40.613Z,98.30
2022-09-05T01:41:25.183Z,98.30
2022-09-05T01:44:06.048Z,98.40
2022-09-05T01:46:40.914Z,98.50
2022-09-05T01:49:20.680Z,98.40
2022-09-05T01:52:14.967Z,98.50
2022-09-05T01:54:56.289Z,98.60
2022-09-05T01:57:33.142Z,98.50
2022-09-05T02:00:11.541Z,98.60
2022-09-05T02:03:00.326Z,98.60
2022-09-05T02:06:00.725Z,98.70
2022-09-05T02:08:52.717Z,99.00
2022-09-05T02:11:42.805Z,98.90
2022-09-05T02:14:27.049Z,99.10
2022-09-05T02:17:23.722Z,99.10
2022-09-05T02:20:23.429Z,99.20
2022-09-05T02:23:01.220Z,99.50
2022-09-05T02:26:01.745Z,99.60
2022-09-05T02:28:37.733Z,99.80
2022-09-05T02:31:19.879Z,99.80
2022-09-05T02:34:01.861Z,99.80
2022-09-05T02:36:36.452Z,99.90
2022-09-05T02:44:51.555Z,99.90
2022-09-05T02:45:11.426Z,99.90
2022-09-05T02:45:25.355Z,99.90
2022-09-05T02:48:06.926Z,99.90
2022-09-05T02:57:23.495Z,99.90
2022-09-05T02:57:36.182Z,99.90
2022-09-05T02:57:36.693Z,99.90
2022-09-05T03:00:07.591Z,99.90
2022-09-05T03:02:47.196Z,99.90
2022-09-05T03:05:22.540Z,99.90
2022-09-05T03:08:07.797Z,99.90
2022-09-05T03:11:21.399Z,99.90
2022-09-05T03:14:37.740Z,99.90
2022-09-05T03:17:34.985Z,99.90
2022-09-05T03:21:09.718Z,99.90
2022-09-05T03:24:06.362Z,99.90
2022-09-05T03:27:11.753Z,99.90
2022-09-05T03:30:05.992Z,99.90
2022-09-05T03:33:03.867Z,99.90
2022-09-05T03:36:08.721Z,99.90
2022-09-05T03:39:10.775Z,99.90
2022-09-05T03:42:14.433Z,99.90
2022-09-05T03:45:02.141Z,99.90
2022-09-05T03:48:18.558Z,99.90
2022-09-05T03:56:56.922Z,99.90
2022-09-05T03:57:15.452Z,99.90
2022-09-05T03:57:41.490Z,99.90
2022-09-05T04:00:20.825Z,99.90
2022-09-05T04:08:07.472Z,99.90
2022-09-05T04:08:23.746Z,99.90
2022-09-05T04:09:04.740Z,99.90
2022-09-05T04:11:37.578Z,99.90
2022-09-05T04:14:12.297Z,99.90
2022-09-05T04:16:51.996Z,99.90
2022-09-05T04:19:29.276Z,99.90
2022-09-05T04:22:08.284Z,99.90
2022-09-05T04:24:45.179Z,99.90
2022-09-05T04:27:27.965Z,99.90
2022-09-05T04:30:06.590Z,99.90
2022-09-05T04:32:59.131Z,99.90
2022-09-05T04:35:34.709Z,99.90
2022-09-05T04:38:11.545Z,99.90
2022-09-05T04:40:48.335Z,99.90
2022-09-05T04:43:29.837Z,99.90
2022-09-05T04:46:10.528Z,99.90
2022-09-05T04:48:44.994Z,99.90
2022-09-05T04:51:34.656Z,99.90
2022-09-05T04:54:31.887Z,99.90
2022-09-05T04:57:14.390Z,99.90
2022-09-05T05:05:53.759Z,99.90
2022-09-05T05:06:01.927Z,99.90
2022-09-05T05:06:16.666Z,99.90
2022-09-05T05:08:38.664Z,99.90
2022-09-05T05:16:34.078Z,99.90
2022-09-05T05:18:00.115Z,99.90
2022-09-05T05:18:11.320Z,99.90
2022-09-05T05:20:39.421Z,99.90
2022-09-05T05:22:54.053Z,99.90
2022-09-05T05:25:22.472Z,99.90
2022-09-05T05:28:10.335Z,99.90
2022-09-05T05:30:54.006Z,99.90
2022-09-05T05:33:33.986Z,99.90
2022-09-05T05:36:08.607Z,99.90
2022-09-05T05:38:44.117Z,99.90
2022-09-05T05:41:19.553Z,99.90
2022-09-05T05:43:48.319Z,99.90
2022-09-05T05:46:26.056Z,99.90
2022-09-05T05:49:04.532Z,99.90
2022-09-05T05:52:02.697Z,99.90
2022-09-05T05:54:42.032Z,99.90
2022-09-05T05:57:33.490Z,99.90
2022-09-05T06:00:14.962Z,99.90
2022-09-05T06:03:26.417Z,99.90
2022-09-05T06:06:33.049Z,99.90
2022-09-05T06:14:07.876Z,99.90
2022-09-05T06:14:54.845Z,99.90
2022-09-05T06:28:26.996Z,99.90
2022-09-05T06:31:30.195Z,99.90
2022-09-05T06:34:35.475Z,99.90
2022-09-05T06:37:11.255Z,99.90
2022-09-05T06:39:58.629Z,99.90
2022-09-05T06:42:43.797Z,99.90
2022-09-05T06:45:33.070Z,99.90
2022-09-05T06:48:23.870Z,99.90
2022-09-05T06:51:28.208Z,99.90
2022-09-05T06:54:10.974Z,99.90
2022-09-05T06:56:59.687Z,99.90
2022-09-05T07:00:04.676Z,99.90
2022-09-05T07:02:59.495Z,99.90
2022-09-05T07:05:44.611Z,99.90
2022-09-05T07:08:34.672Z,99.90
2022-09-05T07:11:15.967Z,99.90
2022-09-05T07:13:55.911Z,99.90
2022-09-05T07:24:41.807Z,99.90
2022-09-05T07:27:34.394Z,99.90
2022-09-05T07:33:02.334Z,99.90
2022-09-05T07:35:41.320Z,99.90
2022-09-05T07:38:18.020Z,99.90
2022-09-05T07:40:53.459Z,99.90
2022-09-05T07:43:30.960Z,99.90
2022-09-05T07:46:13.690Z,99.90
2022-09-05T07:48:45.656Z,99.90
2022-09-05T07:56:17.216Z,99.90
2022-09-05T08:07:49.877Z,99.90
2022-09-05T08:10:31.133Z,99.90
2022-09-05T08:13:23.703Z,99.90
2022-09-05T08:16:09.755Z,99.90
2022-09-05T08:18:47.463Z,99.60
2022-09-05T08:21:27.743Z,99.50
2022-09-05T08:24:13.568Z,99.40
2022-09-05T08:26:47.578Z,99.80
2022-09-05T08:29:32.257Z,99.70
2022-09-05T08:32:10.465Z,99.90
2022-09-05T08:34:45.803Z,99.40
2022-09-05T08:37:21.331Z,99.10
2022-09-05T08:40:10.206Z,99.10
2022-09-05T08:43:36.612Z,99.00
2022-09-05T08:46:45.797Z,99.10
2022-09-05T08:48:41.512Z,99.70
2022-09-05T08:51:28.227Z,99.70
2022-09-05T08:54:15.428Z,99.60
2022-09-05T08:56:55.921Z,99.90
2022-09-05T08:59:33.731Z,99.80
2022-09-05T09:02:47.426Z,99.90
2022-09-05T09:05:56.663Z,99.60
2022-09-05T09:08:22.560Z,99.30
2022-09-05T09:10:57.389Z,98.80
2022-09-05T09:13:50.809Z,98.80
2022-09-05T09:16:30.463Z,99.10
2022-09-05T09:19:10.786Z,98.50
2022-09-05T09:21:44.024Z,98.00
2022-09-05T09:24:24.403Z,97.50
2022-09-05T09:26:56.467Z,97.70
2022-09-05T09:29:27.817Z,97.80
2022-09-05T09:32:05.263Z,97.00
2022-09-05T09:34:47.451Z,96.80
2022-09-05T09:38:02.450Z,96.80
2022-09-05T09:41:03.042Z,96.40
2022-09-05T09:43:53.972Z,96.30
2022-09-05T09:46:34.192Z,96.90
2022-09-05T09:49:37.936Z,96.90
2022-09-05T09:52:44.706Z,97.20
2022-09-05T09:55:52.074Z,96.50
2022-09-05T09:58:42.914Z,97.20
2022-09-05T10:01:34.963Z,96.80
2022-09-05T10:10:35.650Z,96.70
2022-09-05T10:10:53.995Z,96.50
2022-09-05T10:11:51.486Z,96.10
2022-09-05T10:14:50.864Z,95.90
2022-09-05T10:17:56.932Z,95.00
2022-09-05T10:20:39.483Z,94.80
2022-09-05T10:23:44.258Z,94.80
2022-09-05T10:26:47.315Z,94.90
2022-09-05T10:29:43.104Z,95.30
2022-09-05T10:35:10.780Z,95.40
2022-09-05T10:35:22.186Z,94.50
2022-09-05T10:37:58.086Z,94.80
2022-09-05T10:40:28.614Z,94.60
2022-09-05T10:43:02.451Z,94.90
2022-09-05T10:45:42.682Z,94.30
2022-09-05T10:48:18.180Z,94.30
2022-09-05T10:50:55.414Z,93.70
2022-09-05T10:53:38.996Z,93.80
2022-09-05T10:56:13.270Z,93.30
2022-09-05T10:59:54.172Z,92.90
2022-09-05T11:02:28.570Z,93.20
2022-09-05T11:04:46.794Z,91.90
2022-09-05T11:07:27.870Z,92.50
2022-09-05T11:10:17.299Z,92.70
2022-09-05T11:13:05.127Z,92.50
2022-09-05T11:15:47.884Z,92.70
2022-09-05T11:18:57.726Z,92.30
2022-09-05T11:22:10.321Z,91.80
2022-09-05T11:24:51.680Z,92.40
2022-09-05T11:27:30.350Z,91.20
2022-09-05T11:30:06.982Z,91.60
2022-09-05T11:37:41.674Z,91.30
2022-09-05T11:40:04.535Z,91.20
2022-09-05T11:40:07.047Z,90.60
2022-09-05T11:42:24.448Z,91.30
2022-09-05T11:45:20.572Z,91.10
2022-09-05T11:48:25.007Z,90.50
2022-09-05T11:51:33.996Z,90.90
2022-09-05T11:54:43.418Z,90.30
2022-09-05T11:57:34.745Z,90.50
2022-09-05T12:00:31.123Z,90.90
2022-09-05T12:03:58.792Z,89.30
2022-09-05T12:06:54.964Z,89.90
2022-09-05T12:09:35.776Z,90.80
2022-09-05T12:12:26.997Z,89.70
2022-09-05T12:15:26.733Z,89.40
2022-09-05T12:18:19.138Z,89.20
2022-09-05T12:20:57.522Z,89.60
2022-09-05T12:23:53.816Z,88.60
2022-09-05T12:27:42.869Z,87.50
2022-09-05T12:29:33.602Z,88.30
2022-09-05T12:33:16.178Z,88.60
2022-09-05T12:40:43.589Z,87.80
2022-09-05T12:41:36.066Z,88.40
2022-09-05T12:42:10.953Z,88.20
2022-09-05T12:44:39.478Z,87.50
2022-09-05T12:46:33.795Z,87.80
2022-09-05T12:49:07.755Z,88.20
2022-09-05T12:51:47.083Z,88.20
2022-09-05T12:54:33.983Z,88.00
2022-09-05T13:01:08.165Z,87.20
2022-09-05T13:02:56.622Z,87.40
2022-09-05T13:03:43.993Z,86.60
2022-09-05T13:06:01.830Z,86.40
2022-09-05T13:08:31.963Z,85.80
2022-09-05T13:16:47.004Z,85.00
2022-09-05T13:19:26.612Z,84.70
2022-09-05T13:22:25.404Z,85.80
2022-09-05T13:25:03.908Z,85.80
2022-09-05T13:27:39.254Z,84.30
2022-09-05T13:31:40.677Z,85.40
2022-09-05T13:36:06.731Z,84.30
2022-09-05T13:38:06.155Z,85.20
2022-09-05T13:39:11.353Z,84.00
2022-09-05T13:41:50.746Z,84.40
2022-09-05T13:44:27.783Z,84.10
2022-09-05T13:47:28.998Z,83.80
2022-09-05T13:50:12.574Z,84.00
2022-09-05T13:52:44.994Z,83.90
2022-09-05T13:57:54.920Z,84.00
2022-09-05T14:00:52.538Z,83.70
2022-09-05T14:03:57.162Z,81.80
2022-09-05T14:06:49.058Z,82.00
2022-09-05T14:09:44.706Z,82.30
2022-09-05T14:15:13.707Z,81.20
2022-09-05T14:18:00.258Z,80.00
2022-09-05T14:23:15.303Z,81.00
2022-09-05T14:25:45.438Z,81.30
2022-09-05T14:28:19.237Z,80.60
2022-09-05T14:32:39.864Z,78.80
2022-09-05T14:37:44.071Z,81.60
2022-09-05T14:37:51.308Z,80.70
2022-09-05T14:46:04.305Z,80.60
2022-09-05T14:51:47.723Z,79.40
2022-09-05T15:02:58.246Z,79.10
2022-09-05T15:03:21.552Z,79.80
2022-09-05T15:05:51.609Z,79.90
2022-09-05T15:11:24.413Z,79.00
2022-09-05T15:14:03.802Z,79.90
2022-09-05T15:20:07.505Z,80.70
2022-09-05T15:22:40.001Z,80.60
2022-09-05T15:25:26.121Z,79.60
2022-09-05T15:27:56.495Z,81.00
2022-09-05T15:30:35.816Z,79.60
2022-09-05T15:35:43.899Z,80.60
2022-09-05T15:38:56.119Z,81.20
2022-09-05T15:44:15.435Z,80.70
2022-09-05T15:46:51.356Z,80.40
2022-09-05T15:52:04.417Z,80.20
2022-09-05T16:00:09.131Z,80.80
2022-09-05T16:10:39.376Z,81.10
2022-09-05T16:14:23.192Z,80.80
2022-09-05T16:23:12.239Z,80.70
2022-09-05T16:23:30.079Z,82.10
2022-09-05T16:23:31.186Z,81.60
2022-09-05T16:26:03.041Z,81.70
2022-09-05T16:28:36.471Z,81.40
2022-09-05T16:31:36.825Z,81.40
2022-09-05T16:45:51.054Z,81.30
2022-09-05T16:51:36.506Z,81.90
2022-09-05T16:57:04.365Z,82.10
2022-09-05T17:02:09.325Z,80.80
2022-09-05T17:14:10.839Z,82.80
2022-09-05T17:29:38.349Z,84.50
2022-09-05T17:35:17.986Z,84.20
2022-09-05T17:38:20.379Z,83.40
2022-09-05T17:41:10.611Z,83.50
2022-09-05T17:43:40.266Z,83.50
2022-09-05T17:46:21.673Z,84.00
2022-09-05T17:49:41.922Z,84.10
2022-09-05T17:52:32.497Z,83.80
2022-09-05T17:57:42.318Z,83.70
2022-09-05T18:00:47.483Z,84.40
2022-09-05T18:06:34.492Z,84.70
2022-09-05T18:12:37.954Z,85.30
2022-09-05T18:15:16.328Z,85.00
2022-09-05T18:18:02.563Z,84.40
2022-09-05T18:20:53.433Z,84.60
2022-09-05T18:23:54.292Z,84.20
2022-09-05T18:26:43.637Z,84.40
2022-09-05T18:32:05.272Z,85.20
2022-09-05T18:34:51.577Z,85.20
2022-09-05T18:38:16.531Z,85.30
2022-09-05T18:41:19.541Z,85.40
2022-09-05T18:44:12.924Z,85.90
2022-09-05T18:46:48.572Z,85.70
2022-09-05T19:02:58.826Z,86.60
2022-09-05T19:05:42.442Z,86.20
2022-09-05T19:08:28.742Z,86.40
2022-09-05T19:11:27.676Z,86.60
2022-09-05T19:14:26.467Z,86.50
2022-09-05T19:16:54.348Z,86.70
2022-09-05T19:19:32.956Z,87.20
2022-09-05T19:23:09.135Z,87.50
2022-09-05T19:25:00.089Z,87.60
2022-09-05T19:30:37.977Z,87.70
2022-09-05T19:36:56.794Z,87.80
2022-09-05T19:37:09.977Z,87.90
2022-09-05T19:37:12.704Z,87.70
2022-09-05T19:42:55.736Z,87.70
2022-09-05T19:47:30.926Z,87.80
2022-09-05T19:47:42.433Z,88.20
2022-09-05T19:48:07.820Z,88.20
2022-09-05T19:50:38.474Z,88.30
2022-09-05T19:53:09.492Z,88.40
2022-09-05T19:55:56.544Z,88.30
2022-09-05T19:58:31.924Z,88.30
2022-09-05T20:01:08.430Z,88.20
2022-09-05T20:03:43.651Z,88.90
2022-09-05T20:06:29.875Z,88.90
2022-09-05T20:12:08.488Z,88.70
2022-09-05T20:14:40.373Z,89.20
2022-09-05T20:17:22.994Z,89.30
2022-09-05T20:20:11.240Z,89.20
2022-09-05T20:22:51.285Z,89.30
2022-09-05T20:25:35.158Z,89.10
2022-09-05T20:28:10.140Z,89.00
2022-09-05T20:30:47.493Z,89.00
2022-09-05T20:33:20.690Z,88.70
2022-09-05T20:38:28.314Z,88.90
2022-09-05T20:43:18.014Z,88.70
2022-09-05T20:43:32.822Z,89.10
2022-09-05T20:44:42.560Z,89.30
2022-09-05T20:50:26.046Z,89.90
2022-09-05T20:54:14.294Z,89.40
2022-09-05T20:54:19.678Z,89.10
2022-09-05T20:56:08.307Z,89.20
2022-09-05T20:58:40.430Z,88.80
2022-09-05T21:01:21.760Z,88.90
2022-09-05T21:04:00.402Z,89.50
2022-09-05T21:06:34.481Z,89.30
2022-09-05T21:09:23.813Z,89.50
2022-09-05T21:11:54.366Z,89.60
2022-09-05T21:14:26.371Z,89.20
2022-09-05T21:17:00.849Z,89.80
2022-09-05T21:19:42.181Z,89.70
2022-09-05T21:22:34.289Z,89.90
2022-09-05T21:25:21.190Z,90.00
2022-09-05T21:28:05.836Z,89.70
2022-09-05T21:30:39.356Z,89.70
2022-09-05T21:33:17.336Z,89.80
2022-09-05T21:35:50.296Z,90.00
2022-09-05T21:38:32.736Z,90.10
2022-09-05T21:41:02.785Z,90.00
2022-09-05T21:47:44.676Z,89.90
2022-09-05T21:47:45.066Z,89.70
2022-09-05T21:49:11.218Z,89.70
2022-09-05T21:51:39.867Z,90.00
2022-09-05T21:59:13.468Z,90.20
2022-09-05T21:59:33.664Z,90.30
2022-09-05T22:02:37.868Z,90.50
2022-09-05T22:05:07.231Z,90.30
2022-09-05T22:07:37.964Z,90.40
2022-09-05T22:10:08.951Z,90.40
2022-09-05T22:12:39.278Z,90.40
2022-09-05T22:15:27.898Z,90.40
2022-09-05T22:18:17.682Z,90.40
2022-09-05T22:21:31.864Z,90.40
2022-09-05T22:23:44.517Z,90.50
2022-09-05T22:26:13.318Z,90.40
2022-09-05T22:28:54.464Z,90.40
2022-09-05T22:31:23.860Z,90.50
2022-09-05T22:33:55.686Z,90.50
2022-09-05T22:36:25.212Z,90.60
2022-09-05T22:38:59.046Z,90.60
2022-09-05T22:41:33.030Z,90.60
2022-09-05T22:44:01.694Z,90.90
2022-09-05T22:46:30.882Z,90.60
2022-09-05T22:49:11.557Z,90.70
2022-09-05T22:51:47.605Z,90.80
2022-09-05T22:54:17.151Z,90.90
2022-09-05T22:56:50.958Z,91.00
2022-09-05T22:59:19.946Z,91.10
2022-09-05T23:01:48.433Z,91.10
2022-09-05T23:04:18.252Z,91.10
2022-09-05T23:06:47.334Z,91.10
2022-09-05T23:09:16.362Z,91.10
2022-09-05T23:11:45.801Z,91.20
2022-09-05T23:14:14.293Z,91.30
2022-09-05T23:16:43.206Z,91.30
2022-09-05T23:19:11.613Z,91.40
2022-09-05T23:21:41.840Z,91.40
2022-09-05T23:24:10.324Z,91.40
2022-09-05T23:26:38.525Z,91.50
2022-09-05T23:29:07.257Z,91.50
2022-09-05T23:31:35.880Z,91.60
2022-09-05T23:34:04.997Z,91.90
2022-09-05T23:36:34.047Z,91.80
2022-09-05T23:39:03.781Z,91.90
2022-09-05T23:41:32.073Z,91.80
2022-09-05T23:44:00.438Z,92.20
2022-09-05T23:46:28.587Z,92.30
2022-09-05T23:48:56.694Z,92.40
2022-09-05T23:51:24.806Z,92.30
2022-09-05T23:53:52.840Z,92.30
2022-09-05T23:56:22.289Z,92.40
2022-09-05T23:58:50.421Z,92.40
